Time;durP1;ratioP1;P1;durP2;ratioP2;P2;SDS_P1;SDS_P2;PMS_P1;PMS_P2;Temp;Humidity;BMP_temperature;BMP_pressure;BME280_temperature;BME280_humidity;BME280_pressure;Samples;Min_cycle;Max_cycle;Signal;HPM_P1;HPM_P2
2022/06/06 00:04:31;;;;;;;;;;;;;;;15.48;72.98926;101292.5;;;;-76
2022/06/06 00:07:35;;;;;;;10.8;6.6;;;;;;;;;;;;;-76
2022/06/06 00:09:27;;;;;;;;;;;;;;;15.44;73.05078;101287.8;;;;-75
2022/06/06 00:14:28;;;;;;;;;;;;;;;15.39;73.36719;101289.1;;;;-76
2022/06/06 00:19:28;;;;;;;;;;;;;;;15.33;73.78418;101281.5;;;;-76
2022/06/06 00:24:27;;;;;;;;;;;;;;;15.25;74.55469;101279.4;;;;-76
2022/06/06 00:29:34;;;;;;;;;;;;;;;15.17;74.71973;101279.8;;;;-78
2022/06/06 00:37:31;;;;;;;11.7;5.9;;;;;;;;;;;;;-75
2022/06/06 00:39:30;;;;;;;;;;;;;;;15.06;75.375;101273.2;;;;-76
2022/06/06 00:44:31;;;;;;;;;;;;;;;15.04;75.45996;101273.4;;;;-76
2022/06/06 00:49:33;;;;;;;;;;;;;;;14.99;75.44043;101265.6;;;;-77
2022/06/06 00:54:27;;;;;;;;;;;;;;;14.94;75.50977;101268.1;;;;-75
2022/06/06 00:59:30;;;;;;;;;;;;;;;14.86;75.98828;101267.9;;;;-76
2022/06/06 01:04:30;;;;;;;;;;;;;;;14.84;76.21973;101264;;;;-76
2022/06/06 01:07:31;;;;;;;13.6;7;;;;;;;;;;;;;-76
2022/06/06 01:09:30;;;;;;;;;;;;;;;14.81;75.90137;101258.9;;;;-76
2022/06/06 01:14:30;;;;;;;;;;;;;;;14.79;75.82031;101257.8;;;;-76
2022/06/06 01:19:52;;;;;;;;;;;;;;;14.75;75.75684;101258;;;;-76
2022/06/06 01:24:34;;;;;;;;;;;;;;;14.7;75.93945;101251.3;;;;-78
2022/06/06 01:29:34;;;;;;;;;;;;;;;14.68;75.95801;101248;;;;-78
2022/06/06 01:34:29;;;;;;;;;;;;;;;14.64;76.10742;101252.4;;;;-80
2022/06/06 01:37:41;;;;;;;12.7;6;;;;;;;;;;;;;-80
2022/06/06 01:39:30;;;;;;;;;;;;;;;14.61;76.31641;101247.8;;;;-79
2022/06/06 01:44:29;;;;;;;;;;;;;;;14.62;76.02539;101251.9;;;;-80
2022/06/06 01:49:30;;;;;;;;;;;;;;;14.6;75.99902;101255.1;;;;-78
2022/06/06 01:54:27;;;;;;;;;;;;;;;14.57;75.53516;101246.1;;;;-80
2022/06/06 01:59:31;;;;;;;;;;;;;;;14.53;76.24512;101252.7;;;;-81
2022/06/06 02:04:27;;;;;;;;;;;;;;;14.49;76.27246;101249.9;;;;-78
2022/06/06 02:07:37;;;;;;;11.1;5.4;;;;;;;;;;;;;-78
2022/06/06 02:09:32;;;;;;;;;;;;;;;14.44;76.48633;101247;;;;-79
2022/06/06 02:14:27;;;;;;;;;;;;;;;14.43;76.4043;101239.8;;;;-78
2022/06/06 02:19:27;;;;;;;;;;;;;;;14.41;76.36035;101240.5;;;;-78
2022/06/06 02:24:27;;;;;;;;;;;;;;;14.38;76.16406;101239.6;;;;-79
2022/06/06 02:29:31;;;;;;;;;;;;;;;14.34;76.68066;101231.3;;;;-80
2022/06/06 02:34:27;;;;;;;;;;;;;;;14.31;76.40625;101230.5;;;;-79
2022/06/06 02:37:36;;;;;;;8.2;4.6;;;;;;;;;;;;;-81
2022/06/06 02:39:28;;;;;;;;;;;;;;;14.29;76.95215;101234.6;;;;-79
2022/06/06 02:44:28;;;;;;;;;;;;;;;14.25;77.24609;101236.4;;;;-80
2022/06/06 02:49:27;;;;;;;;;;;;;;;14.23;77.23145;101236.1;;;;-80
2022/06/06 02:54:27;;;;;;;;;;;;;;;14.21;77.40527;101233.9;;;;-80
2022/06/06 02:59:28;;;;;;;;;;;;;;;14.19;77.4375;101232;;;;-78
2022/06/06 03:04:27;;;;;;;;;;;;;;;14.17;77.25586;101226.4;;;;-79
2022/06/06 03:07:44;;;;;;;10.5;4.3;;;;;;;;;;;;;-79
2022/06/06 03:09:33;;;;;;;;;;;;;;;14.14;77.26074;101224.3;;;;-81
2022/06/06 03:14:49;;;;;;;;;;;;;;;14.11;77.2666;101223.2;;;;-78
2022/06/06 03:24:34;;;;;;;;;;;;;;;14.08;77.46289;101240.5;;;;-80
2022/06/06 03:29:37;;;;;;;;;;;;;;;14.04;77.96875;101239.5;;;;-80
2022/06/06 03:34:31;;;;;;;;;;;;;;;14.02;78.07715;101242.8;;;;-79
2022/06/06 03:37:48;;;;;;;11.9;4.7;;;;;;;;;;;;;-79
2022/06/06 03:39:31;;;;;;;;;;;;;;;14.01;78.09766;101242.4;;;;-80
2022/06/06 03:44:33;;;;;;;;;;;;;;;13.98;78.38086;101246.8;;;;-80
2022/06/06 03:49:42;;;;;;;;;;;;;;;13.95;78.77832;101235.4;;;;-79
2022/06/06 03:54:35;;;;;;;;;;;;;;;13.93;78.97363;101236.1;;;;-79
2022/06/06 03:59:31;;;;;;;;;;;;;;;13.89;79.56934;101226.9;;;;-79
2022/06/06 04:04:28;;;;;;;;;;;;;;;13.9;79.39453;101224.1;;;;-80
2022/06/06 04:07:39;;;;;;;12.8;5.8;;;;;;;;;;;;;-79
2022/06/06 04:09:32;;;;;;;;;;;;;;;13.88;79.75781;101229.8;;;;-79
2022/06/06 04:14:37;;;;;;;;;;;;;;;13.87;80.01367;101222.4;;;;-80
2022/06/06 04:19:33;;;;;;;;;;;;;;;13.87;80.24609;101216.5;;;;-78
2022/06/06 04:24:44;;;;;;;;;;;;;;;13.87;80.40234;101224.8;;;;-80
2022/06/06 04:29:32;;;;;;;;;;;;;;;13.89;80.58594;101221;;;;-80
2022/06/06 04:34:31;;;;;;;;;;;;;;;13.9;80.76465;101227.4;;;;-79
2022/06/06 04:37:45;;;;;;;14.6;6.1;;;;;;;;;;;;;-79
2022/06/06 04:39:32;;;;;;;;;;;;;;;13.91;80.77832;101231;;;;-79
2022/06/06 04:44:30;;;;;;;;;;;;;;;13.92;80.58008;101229.6;;;;-79
2022/06/06 04:49:30;;;;;;;;;;;;;;;13.88;81.03027;101233.8;;;;-79
2022/06/06 04:54:28;;;;;;;;;;;;;;;13.89;81.48926;101230.1;;;;-80
2022/06/06 04:59:28;;;;;;;;;;;;;;;13.91;81.41406;101226.8;;;;-78
2022/06/06 05:04:27;;;;;;;;;;;;;;;13.96;81.21094;101232.3;;;;-81
2022/06/06 05:07:52;;;;;;;14.1;5.6;;;;;;;;;;;;;-78
2022/06/06 05:09:36;;;;;;;;;;;;;;;13.99;81.37305;101239.6;;;;-80
2022/06/06 05:14:39;;;;;;;;;;;;;;;14.01;81.2207;101233.2;;;;-80
2022/06/06 05:19:40;;;;;;;;;;;;;;;13.98;81.47266;101227.9;;;;-79
2022/06/06 05:24:35;;;;;;;;;;;;;;;14.01;81.58887;101232.5;;;;-80
2022/06/06 05:29:41;;;;;;;;;;;;;;;14.05;81.32813;101230.1;;;;-80
2022/06/06 05:34:33;;;;;;;;;;;;;;;14.16;80.8457;101227.3;;;;-81
2022/06/06 05:37:51;;;;;;;10.9;4.5;;;;;;;;;;;;;-79
2022/06/06 05:39:42;;;;;;;;;;;;;;;14.28;80.41211;101225.9;;;;-81
2022/06/06 05:44:36;;;;;;;;;;;;;;;14.34;80.32129;101228.2;;;;-79
2022/06/06 05:49:45;;;;;;;;;;;;;;;14.33;80.52051;101231.5;;;;-82
2022/06/06 05:54:32;;;;;;;;;;;;;;;14.3;;101242.9;;;;-79
2022/06/06 05:59:38;;;;;;;;;;;;;;;14.27;81.02441;101232.2;;;;-79
2022/06/06 06:04:38;;;;;;;;;;;;;;;14.28;81.08008;101241.6;;;;-79
2022/06/06 06:07:47;;;;;;;12.1;4.8;;;;;;;;;;;;;-79
2022/06/06 06:09:42;;;;;;;;;;;;;;;14.29;81.15039;101241.5;;;;-79
2022/06/06 06:14:34;;;;;;;;;;;;;;;14.38;80.91016;101241.4;;;;-80
2022/06/06 06:19:31;;;;;;;;;;;;;;;14.62;81.36621;101254.1;;;;-80
2022/06/06 06:24:30;;;;;;;;;;;;;;;14.67;80.73828;101258.1;;;;-80
2022/06/06 06:29:28;;;;;;;;;;;;;;;14.64;80.15234;101258.4;;;;-80
2022/06/06 06:34:33;;;;;;;;;;;;;;;14.69;80.04004;101264.7;;;;-82
2022/06/06 06:37:53;;;;;;;10;4;;;;;;;;;;;;;-81
2022/06/06 06:39:41;;;;;;;;;;;;;;;14.83;80.71289;101261.8;;;;-79
2022/06/06 06:44:30;;;;;;;;;;;;;;;15;80.27441;101262.8;;;;-80
2022/06/06 06:49:35;;;;;;;;;;;;;;;15.03;79.2959;101269.9;;;;-80
2022/06/06 06:54:35;;;;;;;;;;;;;;;15;78.73047;101269.2;;;;-80
2022/06/06 06:59:32;;;;;;;;;;;;;;;15.01;78.38672;101277.7;;;;-84
2022/06/06 07:09:35;;;;;;;;;;;;;;;15.12;77.80078;101279.2;;;;-81
2022/06/06 07:14:48;;;;;;;;;;;;;;;15.14;77.46973;101272.7;;;;-81
2022/06/06 07:19:34;;;;;;;;;;;;;;;15.15;77.01172;101271.8;;;;-81
2022/06/06 07:24:27;;;;;;;;;;;;;;;15.33;77.33496;101276.7;;;;-82
2022/06/06 07:29:27;;;;;;;;;;;;;;;15.8;76.59961;101278.7;;;;-82
2022/06/06 07:34:37;;;;;;;;;;;;;;;16.03;75.24805;101278;;;;-82
2022/06/06 07:38:01;;;;;;;9.5;3;;;;;;;;;;;;;-81
2022/06/06 07:39:34;;;;;;;;;;;;;;;15.98;74.7666;101280.3;;;;-80
2022/06/06 07:44:33;;;;;;;;;;;;;;;16.13;74.53516;101281.4;;;;-80
2022/06/06 07:49:33;;;;;;;;;;;;;;;16.26;73.88281;101285.9;;;;-80
2022/06/06 07:54:38;;;;;;;;;;;;;;;16.32;72.75879;101288.2;;;;-81
2022/06/06 07:59:34;;;;;;;;;;;;;;;16.35;71.92188;101292.8;;;;-81
2022/06/06 08:04:33;;;;;;;;;;;;;;;16.47;71.19727;101279.4;;;;-81
2022/06/06 08:08:01;;;;;;;8.1;2.3;;;;;;;;;;;;;-82
2022/06/06 08:09:47;;;;;;;;;;;;;;;16.52;70.84473;101285.5;;;;-80
2022/06/06 08:14:36;;;;;;;;;;;;;;;16.67;71.01563;101280;;;;-82
2022/06/06 08:19:48;;;;;;;;;;;;;;;17.1;70.45313;101281.2;;;;-82
2022/06/06 08:24:30;;;;;;;;;;;;;;;17.27;69.29688;101273.4;;;;-81
2022/06/06 08:29:29;;;;;;;;;;;;;;;17.4;68.47266;101273.2;;;;-83
2022/06/06 08:34:29;;;;;;;;;;;;;;;17.48;67.91992;101290;;;;-84
2022/06/06 08:38:12;;;;;;;6.2;1.8;;;;;;;;;;;;;-80
2022/06/06 08:39:32;;;;;;;;;;;;;;;17.5;67.4834;101290.2;;;;-83
2022/06/06 08:44:55;;;;;;;;;;;;;;;17.51;66.64844;101276.9;;;;-82
2022/06/06 08:54:39;;;;;;;;;;;;;;;17.73;65.34863;101272.6;;;;-84
2022/06/06 08:59:48;;;;;;;;;;;;;;;17.85;64.73438;101266.2;;;;-82
2022/06/06 09:04:46;;;;;;;;;;;;;;;17.9;64.52637;101270.4;;;;-82
2022/06/06 09:08:11;;;;;;;5.2;1.5;;;;;;;;;;;;;-83
2022/06/06 09:09:50;;;;;;;;;;;;;;;17.85;63.64941;101270.9;;;;-83
2022/06/06 09:14:45;;;;;;;;;;;;;;;17.9;64.16602;101270.3;;;;-82
2022/06/06 09:19:48;;;;;;;;;;;;;;;18.03;63.87891;101261.7;;;;-82
2022/06/06 09:24:48;;;;;;;;;;;;;;;18.11;63.38184;101272.5;;;;-82
2022/06/06 09:29:44;;;;;;;;;;;;;;;18.23;62.89941;101263.4;;;;-82
2022/06/06 09:34:46;;;;;;;;;;;;;;;18.42;62.36133;101255.3;;;;-83
2022/06/06 09:38:09;;;;;;;7.7;1.8;;;;;;;;;;;;;-81
2022/06/06 09:39:36;;;;;;;;;;;;;;;18.59;62.0791;101262.6;;;;-82
2022/06/06 09:44:41;;;;;;;;;;;;;;;18.66;61.71484;101267.3;;;;-83
2022/06/06 09:49:44;;;;;;;;;;;;;;;18.65;61.75879;101255.3;;;;-83
2022/06/06 09:59:36;;;;;;;;;;;;;;;18.59;61.11523;101257.6;;;;-84
2022/06/06 10:04:49;;;;;;;;;;;;;;;18.59;61.03516;101254.4;;;;-83
2022/06/06 10:08:19;;;;;;;10.4;2;;;;;;;;;;;;;-85
2022/06/06 10:09:38;;;;;;;;;;;;;;;18.61;60.96973;101248.5;;;;-80
2022/06/06 10:14:38;;;;;;;;;;;;;;;18.62;61.14258;101238.3;;;;-82
2022/06/06 10:19:37;;;;;;;;;;;;;;;18.67;61.30664;101229.1;;;;-83
2022/06/06 10:24:39;;;;;;;;;;;;;;;18.8;61.04199;101237.9;;;;-82
2022/06/06 10:34:40;;;;;;;;;;;;;;;18.93;60.27637;101237.8;;;;-83
2022/06/06 10:38:13;;;;;;;6.9;1.7;;;;;;;;;;;;;-83
2022/06/06 10:39:41;;;;;;;;;;;;;;;18.83;60.18457;101239;;;;-82
2022/06/06 10:44:50;;;;;;;;;;;;;;;18.75;60.62695;101232;;;;-83
2022/06/06 10:49:36;;;;;;;;;;;;;;;18.62;60.63281;101242.5;;;;-83
2022/06/06 10:59:44;;;;;;;;;;;;;;;18.33;62.26953;101255.7;;;;-80
2022/06/06 11:04:41;;;;;;;;;;;;;;;18.1;63.56152;101262.2;;;;-81
2022/06/06 11:08:22;;;;;;;6.1;2;;;;;;;;;;;;;-80
2022/06/06 11:09:38;;;;;;;;;;;;;;;17.79;65.10938;101268.7;;;;-81
2022/06/06 11:14:34;;;;;;;;;;;;;;;17.53;66.23535;101259.2;;;;-80
2022/06/06 11:19:46;;;;;;;;;;;;;;;17.38;66.91211;101250.9;;;;-81
2022/06/06 11:24:34;;;;;;;;;;;;;;;17.27;67.45898;101242.9;;;;-82
2022/06/06 11:29:38;;;;;;;;;;;;;;;17.24;67.79199;101238.9;;;;-85
2022/06/06 11:34:39;;;;;;;;;;;;;;;17.25;67.71582;101244.2;;;;-82
2022/06/06 11:38:18;;;;;;;5.8;2.5;;;;;;;;;;;;;-80
2022/06/06 11:39:47;;;;;;;;;;;;;;;17.18;68.15625;101237;;;;-81
2022/06/06 11:44:49;;;;;;;;;;;;;;;17.08;68.19629;101233.6;;;;-80
2022/06/06 11:49:42;;;;;;;;;;;;;;;17;68.03711;101227.6;;;;-82
2022/06/06 11:54:41;;;;;;;;;;;;;;;16.94;68.35449;101229.7;;;;-83
2022/06/06 11:59:52;;;;;;;;;;;;;;;16.87;68.49121;101239.7;;;;-81
2022/06/06 12:04:38;;;;;;;;;;;;;;;16.79;68.97461;101236.7;;;;-80
2022/06/06 12:08:29;;;;;;;6.1;2.5;;;;;;;;;;;;;-81
2022/06/06 12:09:36;;;;;;;;;;;;;;;16.71;69.33398;101234.7;;;;-80
2022/06/06 12:14:39;;;;;;;;;;;;;;;16.66;69.80957;101227.6;;;;-80
2022/06/06 12:19:36;;;;;;;;;;;;;;;16.61;70.16309;101223.4;;;;-79
2022/06/06 12:24:38;;;;;;;;;;;;;;;16.61;70.41016;101230;;;;-81
2022/06/06 12:29:55;;;;;;;;;;;;;;;16.61;70.26367;101233;;;;-81
2022/06/06 12:34:31;;;;;;;;;;;;;;;16.48;70.49121;101224.9;;;;-81
2022/06/06 12:38:27;;;;;;;5.1;2.3;;;;;;;;;;;;;-82
2022/06/06 12:39:33;;;;;;;;;;;;;;;16.34;70.47949;101217.8;;;;-81
2022/06/06 12:44:38;;;;;;;;;;;;;;;16.28;70.43652;101213.2;;;;-82
2022/06/06 12:49:39;;;;;;;;;;;;;;;16.29;70.58301;101212.6;;;;-79
2022/06/06 12:55:26;;;;;;;;;;;;;;;16.28;70.85156;101204.9;;;;-82
2022/06/06 12:59:41;;;;;;;;;;;;;;;16.21;70.9541;101211.8;;;;-82
2022/06/06 13:04:36;;;;;;;;;;;;;;;16.18;70.6123;101208.6;;;;-80
2022/06/06 13:08:21;;;;;;;3.1;1.4;;;;;;;;;;;;;-78
2022/06/06 13:09:38;;;;;;;;;;;;;;;16.04;70.87012;101213.6;;;;-81
2022/06/06 13:14:38;;;;;;;;;;;;;;;15.99;70.66992;101218.9;;;;-81
2022/06/06 13:19:36;;;;;;;;;;;;;;;15.97;70.53418;101227;;;;-81
2022/06/06 13:24:43;;;;;;;;;;;;;;;15.91;70.97266;101226.7;;;;-81
2022/06/06 13:29:33;;;;;;;;;;;;;;;15.82;70.83496;101226.5;;;;-81
2022/06/06 13:34:36;;;;;;;;;;;;;;;15.72;70.83008;101225.8;;;;-82
2022/06/06 13:38:20;;;;;;;1.9;0.7;;;;;;;;;;;;;-82
2022/06/06 13:39:33;;;;;;;;;;;;;;;15.63;70.55762;101235.2;;;;-81
2022/06/06 13:44:44;;;;;;;;;;;;;;;15.52;70.56055;101236.6;;;;-80
2022/06/06 13:49:41;;;;;;;;;;;;;;;15.43;70.75;101239.6;;;;-80
2022/06/06 13:54:34;;;;;;;;;;;;;;;15.34;70.72363;101246;;;;-81
2022/06/06 13:59:41;;;;;;;;;;;;;;;15.25;71.03516;101246.4;;;;-81
2022/06/06 14:04:44;;;;;;;;;;;;;;;15.21;71.21777;101247.9;;;;-79
2022/06/06 14:08:20;;;;;;;3.9;1.1;;;;;;;;;;;;;-80
2022/06/06 14:09:37;;;;;;;;;;;;;;;15.17;71.30176;101243.5;;;;-80
2022/06/06 14:14:29;;;;;;;;;;;;;;;15.12;71.49512;101251.9;;;;-80
2022/06/06 14:19:33;;;;;;;;;;;;;;;15.06;71.92285;101256.5;;;;-80
2022/06/06 14:24:37;;;;;;;;;;;;;;;14.98;72.03418;101255.4;;;;-82
2022/06/06 14:29:35;;;;;;;;;;;;;;;14.94;72.10547;101259.2;;;;-82
2022/06/06 14:34:37;;;;;;;;;;;;;;;14.9;72.59082;101261.5;;;;-81
2022/06/06 14:38:24;;;;;;;3.8;1.1;;;;;;;;;;;;;-80
2022/06/06 14:39:27;;;;;;;;;;;;;;;14.9;72.7041;101273.8;;;;-79
2022/06/06 14:44:38;;;;;;;;;;;;;;;14.88;72.46582;101281.8;;;;-78
2022/06/06 14:49:33;;;;;;;;;;;;;;;14.85;72.32617;101294.8;;;;-81
2022/06/06 14:54:30;;;;;;;;;;;;;;;14.84;72.26855;101290.3;;;;-81
2022/06/06 14:59:38;;;;;;;;;;;;;;;14.79;72.03711;101316.6;;;;-80
2022/06/06 15:04:28;;;;;;;;;;;;;;;14.7;72.30176;101318.5;;;;-82
2022/06/06 15:08:21;;;;;;;2.9;1.4;;;;;;;;;;;;;-81
2022/06/06 15:09:34;;;;;;;;;;;;;;;14.63;72.30078;101327.1;;;;-80
2022/06/06 15:14:28;;;;;;;;;;;;;;;14.56;72.50195;101333;;;;-80
2022/06/06 15:19:30;;;;;;;;;;;;;;;14.53;72.59668;101339;;;;-81
2022/06/06 15:24:30;;;;;;;;;;;;;;;14.51;72.49316;101337.9;;;;-81
2022/06/06 15:29:30;;;;;;;;;;;;;;;14.52;72.74219;101339.4;;;;-81
2022/06/06 15:34:35;;;;;;;;;;;;;;;14.6;72.27441;101343.6;;;;-81
2022/06/06 15:38:48;;;;;;;4.6;1.5;;;;;;;;;;;;;-81
2022/06/06 15:39:24;;;;;;;;;;;;;;;14.87;71.96094;101355.2;;;;-81
2022/06/06 15:43:29;;;;;;;;;;;;;;;14.65;72.46094;101356.1;;;;-81
2022/06/06 15:48:26;;;;;;;;;;;;;;;14.6;72.66504;101360.6;;;;-82
2022/06/06 15:53:31;;;;;;;;;;;;;;;14.57;72.72754;101364.3;;;;-82
2022/06/06 15:58:31;;;;;;;;;;;;;;;14.49;72.69336;101364.2;;;;-81
2022/06/06 16:03:32;;;;;;;;;;;;;;;14.45;72.31641;101359.9;;;;-80
2022/06/06 16:08:32;;;;;;;;;;;;;;;14.42;72.43457;101359.8;;;;-81
2022/06/06 16:08:49;;;;;;;5.6;2.3;;;;;;;;;;;;;-81
2022/06/06 16:13:34;;;;;;;;;;;;;;;14.39;72.54199;101362.3;;;;-80
2022/06/06 16:18:25;;;;;;;;;;;;;;;14.36;72.65918;101364;;;;-80
2022/06/06 16:23:25;;;;;;;;;;;;;;;14.34;72.85742;101361.6;;;;-81
2022/06/06 16:28:29;;;;;;;;;;;;;;;14.33;72.87988;101359.5;;;;-81
2022/06/06 16:33:27;;;;;;;;;;;;;;;14.33;72.55371;101358.1;;;;-82
2022/06/06 16:38:23;;;;;;;;;;;;;;;14.34;72.62305;101362.4;;;;-81
2022/06/06 16:38:37;;;;;;;8.7;3.5;;;;;;;;;;;;;-81
2022/06/06 16:48:33;;;;;;;;;;;;;;;14.38;72.56348;101368.7;;;;-81
2022/06/06 16:53:29;;;;;;;;;;;;;;;14.36;72.46875;101373.1;;;;-81
2022/06/06 16:58:30;;;;;;;;;;;;;;;14.32;72.50781;101383.9;;;;-81
2022/06/06 17:03:27;;;;;;;;;;;;;;;14.29;72.41406;101389.7;;;;-81
2022/06/06 17:08:30;;;;;;;;;;;;;;;14.3;72.41406;101396.8;;;;-81
2022/06/06 17:08:51;;;;;;;7.7;3.2;;;;;;;;;;;;;-81
2022/06/06 17:13:37;;;;;;;;;;;;;;;14.27;72.30859;101394.1;;;;-81
2022/06/06 17:18:34;;;;;;;;;;;;;;;14.27;72.12988;101394.5;;;;-82
2022/06/06 17:23:27;;;;;;;;;;;;;;;14.3;72.20313;101385.7;;;;-81
2022/06/06 17:28:40;;;;;;;;;;;;;;;14.34;72.00781;101389.7;;;;-80
2022/06/06 17:33:30;;;;;;;;;;;;;;;14.36;72.08887;101391.2;;;;-81
2022/06/06 17:38:39;;;;;;;;;;;;;;;14.36;71.86523;101393;;;;-82
2022/06/06 17:38:56;;;;;;;10.3;3.7;;;;;;;;;;;;;-82
2022/06/06 17:43:39;;;;;;;;;;;;;;;14.33;71.83789;101396.8;;;;-82
2022/06/06 17:48:45;;;;;;;;;;;;;;;14.29;71.78711;101406.6;;;;-82
2022/06/06 17:53:42;;;;;;;;;;;;;;;14.22;71.87598;101402.4;;;;-82
2022/06/06 17:58:48;;;;;;;;;;;;;;;14.14;71.91895;101402.1;;;;-81
2022/06/06 18:03:39;;;;;;;;;;;;;;;14.06;71.99512;101409.8;;;;-81
2022/06/06 18:08:36;;;;;;;;;;;;;;;13.98;71.9834;101409.8;;;;-81
2022/06/06 18:09:07;;;;;;;9.6;3.8;;;;;;;;;;;;;-81
2022/06/06 18:13:34;;;;;;;;;;;;;;;13.93;71.99609;101414;;;;-81
2022/06/06 18:18:24;;;;;;;;;;;;;;;13.87;72.20898;101412.9;;;;-79
2022/06/06 18:23:24;;;;;;;;;;;;;;;13.84;72.33887;101411.5;;;;-80
2022/06/06 18:28:26;;;;;;;;;;;;;;;13.77;72.36035;101412;;;;-82
2022/06/06 18:33:27;;;;;;;;;;;;;;;13.7;72.47168;101405.7;;;;-82
2022/06/06 18:38:26;;;;;;;;;;;;;;;13.66;72.7002;101404.9;;;;-80
2022/06/06 18:38:41;;;;;;;10.7;3.5;;;;;;;;;;;;;-80
2022/06/06 18:43:31;;;;;;;;;;;;;;;13.61;72.65723;101407.7;;;;-81
2022/06/06 18:48:24;;;;;;;;;;;;;;;13.54;72.72559;101412.5;;;;-82
2022/06/06 18:53:25;;;;;;;;;;;;;;;13.5;72.74023;101407.7;;;;-81
2022/06/06 18:58:24;;;;;;;;;;;;;;;13.45;72.44336;101406.5;;;;-82
2022/06/06 19:03:26;;;;;;;;;;;;;;;13.4;72.60254;101405.8;;;;-82
2022/06/06 19:08:24;;;;;;;;;;;;;;;13.32;72.82324;101401.3;;;;-81
2022/06/06 19:08:34;;;;;;;9.3;3.4;;;;;;;;;;;;;-81
2022/06/06 19:13:33;;;;;;;;;;;;;;;13.26;72.90332;101404.1;;;;-81
2022/06/06 19:18:31;;;;;;;;;;;;;;;13.23;72.77246;101408.8;;;;-80
2022/06/06 19:23:24;;;;;;;;;;;;;;;13.19;72.74609;101409;;;;-82
2022/06/06 19:28:28;;;;;;;;;;;;;;;13.14;72.61426;101401.1;;;;-80
2022/06/06 19:33:32;;;;;;;;;;;;;;;13.08;72.75977;101400.6;;;;-82
2022/06/06 19:38:26;;;;;;;;;;;;;;;13.04;72.7207;101405.4;;;;-81
2022/06/06 19:38:47;;;;;;;7.9;3.2;;;;;;;;;;;;;-81
2022/06/06 19:43:25;;;;;;;;;;;;;;;13.03;72.77441;101404.6;;;;-82
2022/06/06 19:48:26;;;;;;;;;;;;;;;12.99;72.76855;101404.3;;;;-81
2022/06/06 19:53:25;;;;;;;;;;;;;;;12.99;72.71191;101408.1;;;;-81
2022/06/06 19:58:22;;;;;;;;;;;;;;;12.96;72.57422;101412.6;;;;-81
2022/06/06 20:03:26;;;;;;;;;;;;;;;12.91;72.61035;101412.1;;;;-81
2022/06/06 20:08:33;;;;;;;;;;;;;;;12.9;72.24121;101418.2;;;;-82
2022/06/06 20:08:43;;;;;;;7.3;3;;;;;;;;;;;;;-82
2022/06/06 20:13:36;;;;;;;;;;;;;;;12.88;72.5166;101415.3;;;;-84
2022/06/06 20:18:25;;;;;;;;;;;;;;;12.84;72.52051;101411.3;;;;-80
2022/06/06 20:23:33;;;;;;;;;;;;;;;12.81;72.75;101411.6;;;;-80
2022/06/06 20:28:25;;;;;;;;;;;;;;;12.81;72.57031;101406.4;;;;-81
2022/06/06 20:33:34;;;;;;;;;;;;;;;12.75;72.77246;101405.1;;;;-79
2022/06/06 20:38:23;;;;;;;;;;;;;;;12.73;72.78223;101402.8;;;;-80
2022/06/06 20:38:47;;;;;;;8.8;3.3;;;;;;;;;;;;;-80
2022/06/06 20:43:24;;;;;;;;;;;;;;;12.73;72.88086;101400;;;;-81
2022/06/06 20:48:28;;;;;;;;;;;;;;;12.72;72.69043;101397.1;;;;-81
2022/06/06 20:53:24;;;;;;;;;;;;;;;12.7;72.69824;101400.6;;;;-80
2022/06/06 20:58:23;;;;;;;;;;;;;;;12.7;72.80957;101390.6;;;;-81
2022/06/06 21:03:22;;;;;;;;;;;;;;;12.69;72.83008;101388.3;;;;-81
2022/06/06 21:08:24;;;;;;;;;;;;;;;12.68;72.69531;101378.6;;;;-81
2022/06/06 21:08:48;;;;;;;10.2;3.5;;;;;;;;;;;;;-82
2022/06/06 21:13:23;;;;;;;;;;;;;;;12.68;72.62793;101374.2;;;;-81
2022/06/06 21:18:23;;;;;;;;;;;;;;;12.67;72.65918;101377.1;;;;-81
2022/06/06 21:23:29;;;;;;;;;;;;;;;12.64;72.75586;101373.1;;;;-82
2022/06/06 21:28:31;;;;;;;;;;;;;;;12.63;72.83105;101364.9;;;;-81
2022/06/06 21:33:22;;;;;;;;;;;;;;;12.62;72.92969;101368.3;;;;-80
2022/06/06 21:38:22;;;;;;;;;;;;;;;12.62;72.85156;101367.1;;;;-81
2022/06/06 21:38:39;;;;;;;11.4;3.7;;;;;;;;;;;;;-82
2022/06/06 21:43:22;;;;;;;;;;;;;;;12.64;72.82324;101365.5;;;;-80
2022/06/06 21:48:22;;;;;;;;;;;;;;;12.64;72.76563;101359.5;;;;-82
2022/06/06 21:53:22;;;;;;;;;;;;;;;12.64;73.02246;101361.1;;;;-82
2022/06/06 21:58:23;;;;;;;;;;;;;;;12.64;73.08887;101357;;;;-81
2022/06/06 22:03:22;;;;;;;;;;;;;;;12.65;73.04785;101361.3;;;;-81
2022/06/06 22:08:22;;;;;;;;;;;;;;;12.66;73.26074;101358.1;;;;-80
2022/06/06 22:08:40;;;;;;;11.3;3.9;;;;;;;;;;;;;-80
2022/06/06 22:13:22;;;;;;;;;;;;;;;12.69;73.13184;101352.7;;;;-80
2022/06/06 22:18:22;;;;;;;;;;;;;;;12.67;73.5625;101351.7;;;;-83
2022/06/06 22:23:24;;;;;;;;;;;;;;;12.67;73.54102;101351.1;;;;-82
2022/06/06 22:28:22;;;;;;;;;;;;;;;12.68;73.55273;101351.4;;;;-82
2022/06/06 22:33:23;;;;;;;;;;;;;;;12.69;73.55273;101348.6;;;;-80
2022/06/06 22:38:22;;;;;;;;;;;;;;;12.68;73.64063;101344.4;;;;-79
2022/06/06 22:38:42;;;;;;;8.3;3.5;;;;;;;;;;;;;-81
2022/06/06 22:43:22;;;;;;;;;;;;;;;12.69;73.60938;101341;;;;-82
2022/06/06 22:48:22;;;;;;;;;;;;;;;12.68;73.91016;101338.7;;;;-81
2022/06/06 22:53:22;;;;;;;;;;;;;;;12.67;74.22949;101335;;;;-80
2022/06/06 22:58:22;;;;;;;;;;;;;;;12.66;74.28418;101330.2;;;;-82
2022/06/06 23:03:22;;;;;;;;;;;;;;;12.65;74.8291;101321.7;;;;-81
2022/06/06 23:08:22;;;;;;;;;;;;;;;12.66;75.19727;101315.3;;;;-81
2022/06/06 23:08:44;;;;;;;11.3;3.8;;;;;;;;;;;;;-82
2022/06/06 23:13:22;;;;;;;;;;;;;;;12.65;75.37402;101306.1;;;;-81
2022/06/06 23:18:22;;;;;;;;;;;;;;;12.63;75.71582;101301.8;;;;-82
2022/06/06 23:23:21;;;;;;;;;;;;;;;12.62;75.90527;101295.8;;;;-82
2022/06/06 23:28:23;;;;;;;;;;;;;;;12.61;76.18945;101298.8;;;;-81
2022/06/06 23:33:22;;;;;;;;;;;;;;;12.61;76.29102;101290.6;;;;-80
2022/06/06 23:38:26;;;;;;;;;;;;;;;12.61;76.55957;101283.1;;;;-80
2022/06/06 23:38:45;;;;;;;12.6;4.6;;;;;;;;;;;;;-80
2022/06/06 23:43:25;;;;;;;;;;;;;;;12.6;76.5791;101269.6;;;;-81
2022/06/06 23:48:24;;;;;;;;;;;;;;;12.59;76.92285;101271.5;;;;-82
2022/06/06 23:53:26;;;;;;;;;;;;;;;12.58;76.95313;101261;;;;-79
2022/06/06 23:58:23;;;;;;;;;;;;;;;12.58;77.08789;101257.5;;;;-81
